sensor_id;sensor_type;location;lat;lon;timestamp;P1;P2;P0
36453;PMS5003;22478;51.740;-1.314;2022-10-31T00:00:22;216;212;
36453;PMS5003;22478;51.740;-1.314;2022-10-31T00:02:50;219;217;
36453;PMS5003;22478;51.740;-1.314;2022-10-31T00:05:17;215;211;
36453;PMS5003;22478;51.740;-1.314;2022-10-31T00:07:44;213;213;
36453;PMS5003;22478;51.740;-1.314;2022-10-31T00:10:11;220;216;
36453;PMS5003;22478;51.740;-1.314;2022-10-31T00:12:38;209;208;
36453;PMS5003;22478;51.740;-1.314;2022-10-31T00:15:05;221;215;
36453;PMS5003;22478;51.740;-1.314;2022-10-31T00:17:34;207;206;
36453;PMS5003;22478;51.740;-1.314;2022-10-31T00:20:01;214;212;
36453;PMS5003;22478;51.740;-1.314;2022-10-31T00:22:29;211;211;
36453;PMS5003;22478;51.740;-1.314;2022-10-31T00:24:56;217;210;
36453;PMS5003;22478;51.740;-1.314;2022-10-31T00:27:23;222;219;
36453;PMS5003;22478;51.740;-1.314;2022-10-31T00:29:51;213;213;
36453;PMS5003;22478;51.740;-1.314;2022-10-31T00:32:18;212;212;
36453;PMS5003;22478;51.740;-1.314;2022-10-31T00:34:45;214;212;
36453;PMS5003;22478;51.740;-1.314;2022-10-31T00:37:13;217;215;
36453;PMS5003;22478;51.740;-1.314;2022-10-31T00:39:40;211;210;
36453;PMS5003;22478;51.740;-1.314;2022-10-31T00:42:07;214;211;
36453;PMS5003;22478;51.740;-1.314;2022-10-31T00:44:34;215;214;
36453;PMS5003;22478;51.740;-1.314;2022-10-31T00:47:02;192;184;
36453;PMS5003;22478;51.740;-1.314;2022-10-31T00:49:30;235;235;
36453;PMS5003;22478;51.740;-1.314;2022-10-31T00:51:57;206;201;
36453;PMS5003;22478;51.740;-1.314;2022-10-31T00:54:24;265;260;
36453;PMS5003;22478;51.740;-1.314;2022-10-31T00:56:51;233;232;
36453;PMS5003;22478;51.740;-1.314;2022-10-31T00:59:19;191;175;
36453;PMS5003;22478;51.740;-1.314;2022-10-31T01:01:46;239;238;
36453;PMS5003;22478;51.740;-1.314;2022-10-31T01:04:13;248;242;
36453;PMS5003;22478;51.740;-1.314;2022-10-31T01:06:40;245;245;
36453;PMS5003;22478;51.740;-1.314;2022-10-31T01:09:08;228;228;
36453;PMS5003;22478;51.740;-1.314;2022-10-31T01:11:35;232;230;
36453;PMS5003;22478;51.740;-1.314;2022-10-31T01:14:02;216;216;
36453;PMS5003;22478;51.740;-1.314;2022-10-31T01:16:30;195;189;
36453;PMS5003;22478;51.740;-1.314;2022-10-31T01:18:57;241;239;
36453;PMS5003;22478;51.740;-1.314;2022-10-31T01:21:25;244;243;
36453;PMS5003;22478;51.740;-1.314;2022-10-31T01:23:54;201;190;
36453;PMS5003;22478;51.740;-1.314;2022-10-31T01:26:22;240;238;
36453;PMS5003;22478;51.740;-1.314;2022-10-31T01:28:52;241;241;
36453;PMS5003;22478;51.740;-1.314;2022-10-31T01:31:22;220;220;
36453;PMS5003;22478;51.740;-1.314;2022-10-31T01:33:51;238;235;
36453;PMS5003;22478;51.740;-1.314;2022-10-31T01:36:20;231;229;
36453;PMS5003;22478;51.740;-1.314;2022-10-31T01:38:50;240;236;
36453;PMS5003;22478;51.740;-1.314;2022-10-31T01:41:19;225;224;
36453;PMS5003;22478;51.740;-1.314;2022-10-31T01:43:49;223;220;
36453;PMS5003;22478;51.740;-1.314;2022-10-31T01:46:20;210;208;
36453;PMS5003;22478;51.740;-1.314;2022-10-31T01:48:51;217;217;
36453;PMS5003;22478;51.740;-1.314;2022-10-31T01:51:21;211;209;
36453;PMS5003;22478;51.740;-1.314;2022-10-31T01:53:53;217;215;
36453;PMS5003;22478;51.740;-1.314;2022-10-31T01:56:24;201;201;
36453;PMS5003;22478;51.740;-1.314;2022-10-31T01:58:52;199;194;
36453;PMS5003;22478;51.740;-1.314;2022-10-31T02:01:23;204;200;
36453;PMS5003;22478;51.740;-1.314;2022-10-31T02:03:50;203;197;
36453;PMS5003;22478;51.740;-1.314;2022-10-31T02:06:20;211;207;
36453;PMS5003;22478;51.740;-1.314;2022-10-31T02:08:54;214;208;
36453;PMS5003;22478;51.740;-1.314;2022-10-31T02:11:23;206;205;
36453;PMS5003;22478;51.740;-1.314;2022-10-31T02:13:50;206;204;
36453;PMS5003;22478;51.740;-1.314;2022-10-31T02:16:18;209;203;
36453;PMS5003;22478;51.740;-1.314;2022-10-31T02:18:45;203;200;
36453;PMS5003;22478;51.740;-1.314;2022-10-31T02:21:15;220;216;
36453;PMS5003;22478;51.740;-1.314;2022-10-31T02:23:52;211;206;
36453;PMS5003;22478;51.740;-1.314;2022-10-31T02:26:51;204;198;
36453;PMS5003;22478;51.740;-1.314;2022-10-31T02:29:47;237;234;
36453;PMS5003;22478;51.740;-1.314;2022-10-31T02:32:30;210;209;
36453;PMS5003;22478;51.740;-1.314;2022-10-31T02:35:10;247;245;
36453;PMS5003;22478;51.740;-1.314;2022-10-31T02:37:48;249;248;
36453;PMS5003;22478;51.740;-1.314;2022-10-31T02:40:21;233;231;
36453;PMS5003;22478;51.740;-1.314;2022-10-31T02:42:55;226;220;
36453;PMS5003;22478;51.740;-1.314;2022-10-31T02:45:30;247;244;
36453;PMS5003;22478;51.740;-1.314;2022-10-31T02:48:03;230;226;
36453;PMS5003;22478;51.740;-1.314;2022-10-31T02:50:37;222;221;
36453;PMS5003;22478;51.740;-1.314;2022-10-31T02:53:09;206;204;
36453;PMS5003;22478;51.740;-1.314;2022-10-31T02:55:46;192;188;
36453;PMS5003;22478;51.740;-1.314;2022-10-31T02:58:18;222;219;
36453;PMS5003;22478;51.740;-1.314;2022-10-31T03:00:51;227;223;
36453;PMS5003;22478;51.740;-1.314;2022-10-31T03:03:29;207;207;
36453;PMS5003;22478;51.740;-1.314;2022-10-31T03:06:05;225;225;
36453;PMS5003;22478;51.740;-1.314;2022-10-31T03:08:40;193;192;
36453;PMS5003;22478;51.740;-1.314;2022-10-31T03:11:16;211;209;
36453;PMS5003;22478;51.740;-1.314;2022-10-31T03:13:50;207;207;
36453;PMS5003;22478;51.740;-1.314;2022-10-31T03:16:26;206;205;
36453;PMS5003;22478;51.740;-1.314;2022-10-31T03:19:04;219;218;
36453;PMS5003;22478;51.740;-1.314;2022-10-31T03:21:35;207;205;
36453;PMS5003;22478;51.740;-1.314;2022-10-31T03:24:06;191;190;
36453;PMS5003;22478;51.740;-1.314;2022-10-31T03:26:36;207;205;
36453;PMS5003;22478;51.740;-1.314;2022-10-31T03:29:10;212;210;
36453;PMS5003;22478;51.740;-1.314;2022-10-31T03:31:42;190;189;
36453;PMS5003;22478;51.740;-1.314;2022-10-31T03:34:16;186;186;
36453;PMS5003;22478;51.740;-1.314;2022-10-31T03:36:45;202;198;
36453;PMS5003;22478;51.740;-1.314;2022-10-31T03:39:17;195;193;
36453;PMS5003;22478;51.740;-1.314;2022-10-31T03:41:48;242;240;
36453;PMS5003;22478;51.740;-1.314;2022-10-31T03:44:21;234;230;
36453;PMS5003;22478;51.740;-1.314;2022-10-31T03:46:50;210;207;
36453;PMS5003;22478;51.740;-1.314;2022-10-31T03:49:17;211;206;
36453;PMS5003;22478;51.740;-1.314;2022-10-31T03:51:45;206;204;
36453;PMS5003;22478;51.740;-1.314;2022-10-31T03:54:19;206;206;
36453;PMS5003;22478;51.740;-1.314;2022-10-31T03:56:53;213;213;
36453;PMS5003;22478;51.740;-1.314;2022-10-31T03:59:24;207;202;
36453;PMS5003;22478;51.740;-1.314;2022-10-31T04:01:57;237;232;
36453;PMS5003;22478;51.740;-1.314;2022-10-31T04:04:28;254;254;
36453;PMS5003;22478;51.740;-1.314;2022-10-31T04:06:56;244;243;
36453;PMS5003;22478;51.740;-1.314;2022-10-31T04:09:27;201;200;
36453;PMS5003;22478;51.740;-1.314;2022-10-31T04:11:58;199;198;
36453;PMS5003;22478;51.740;-1.314;2022-10-31T04:14:27;189;189;
36453;PMS5003;22478;51.740;-1.314;2022-10-31T04:16:58;202;201;
36453;PMS5003;22478;51.740;-1.314;2022-10-31T04:19:27;194;194;
36453;PMS5003;22478;51.740;-1.314;2022-10-31T04:21:55;199;199;
36453;PMS5003;22478;51.740;-1.314;2022-10-31T04:24:22;199;199;
36453;PMS5003;22478;51.740;-1.314;2022-10-31T04:26:48;185;184;
36453;PMS5003;22478;51.740;-1.314;2022-10-31T04:29:16;215;212;
36453;PMS5003;22478;51.740;-1.314;2022-10-31T04:31:43;174;173;
36453;PMS5003;22478;51.740;-1.314;2022-10-31T04:34:10;209;208;
36453;PMS5003;22478;51.740;-1.314;2022-10-31T04:36:37;210;210;
36453;PMS5003;22478;51.740;-1.314;2022-10-31T04:39:04;176;174;
36453;PMS5003;22478;51.740;-1.314;2022-10-31T04:41:31;192;191;
36453;PMS5003;22478;51.740;-1.314;2022-10-31T04:43:58;202;201;
36453;PMS5003;22478;51.740;-1.314;2022-10-31T04:46:26;191;189;
36453;PMS5003;22478;51.740;-1.314;2022-10-31T04:48:53;194;194;
36453;PMS5003;22478;51.740;-1.314;2022-10-31T04:51:20;225;224;
36453;PMS5003;22478;51.740;-1.314;2022-10-31T04:53:48;223;222;
36453;PMS5003;22478;51.740;-1.314;2022-10-31T04:56:14;227;226;
36453;PMS5003;22478;51.740;-1.314;2022-10-31T04:58:41;274;274;
36453;PMS5003;22478;51.740;-1.314;2022-10-31T05:01:08;229;226;
36453;PMS5003;22478;51.740;-1.314;2022-10-31T05:03:36;244;244;
36453;PMS5003;22478;51.740;-1.314;2022-10-31T05:06:04;227;225;
36453;PMS5003;22478;51.740;-1.314;2022-10-31T05:08:31;218;216;
36453;PMS5003;22478;51.740;-1.314;2022-10-31T05:10:59;238;238;
36453;PMS5003;22478;51.740;-1.314;2022-10-31T05:13:27;243;242;
36453;PMS5003;22478;51.740;-1.314;2022-10-31T05:15:54;248;245;
36453;PMS5003;22478;51.740;-1.314;2022-10-31T05:18:22;245;245;
36453;PMS5003;22478;51.740;-1.314;2022-10-31T05:20:50;253;250;
36453;PMS5003;22478;51.740;-1.314;2022-10-31T05:23:17;248;248;
36453;PMS5003;22478;51.740;-1.314;2022-10-31T05:25:45;241;240;
36453;PMS5003;22478;51.740;-1.314;2022-10-31T05:28:12;219;219;
36453;PMS5003;22478;51.740;-1.314;2022-10-31T05:30:39;216;214;
36453;PMS5003;22478;51.740;-1.314;2022-10-31T05:33:06;217;217;
36453;PMS5003;22478;51.740;-1.314;2022-10-31T05:35:34;226;223;
36453;PMS5003;22478;51.740;-1.314;2022-10-31T05:38:01;223;222;
36453;PMS5003;22478;51.740;-1.314;2022-10-31T05:40:29;228;226;
36453;PMS5003;22478;51.740;-1.314;2022-10-31T05:42:56;226;225;
36453;PMS5003;22478;51.740;-1.314;2022-10-31T05:45:23;232;232;
36453;PMS5003;22478;51.740;-1.314;2022-10-31T05:47:51;222;222;
36453;PMS5003;22478;51.740;-1.314;2022-10-31T05:50:19;229;229;
36453;PMS5003;22478;51.740;-1.314;2022-10-31T05:52:46;231;231;
36453;PMS5003;22478;51.740;-1.314;2022-10-31T05:55:13;251;251;
36453;PMS5003;22478;51.740;-1.314;2022-10-31T05:57:41;241;241;
36453;PMS5003;22478;51.740;-1.314;2022-10-31T06:00:08;248;247;
36453;PMS5003;22478;51.740;-1.314;2022-10-31T06:02:36;261;259;
36453;PMS5003;22478;51.740;-1.314;2022-10-31T06:05:03;254;252;
36453;PMS5003;22478;51.740;-1.314;2022-10-31T06:07:32;255;253;
36453;PMS5003;22478;51.740;-1.314;2022-10-31T06:10:00;257;255;
36453;PMS5003;22478;51.740;-1.314;2022-10-31T06:12:27;262;259;
36453;PMS5003;22478;51.740;-1.314;2022-10-31T06:14:55;241;241;
36453;PMS5003;22478;51.740;-1.314;2022-10-31T06:17:22;263;260;
36453;PMS5003;22478;51.740;-1.314;2022-10-31T06:19:49;242;242;
36453;PMS5003;22478;51.740;-1.314;2022-10-31T06:22:16;263;262;
36453;PMS5003;22478;51.740;-1.314;2022-10-31T06:24:44;262;260;
36453;PMS5003;22478;51.740;-1.314;2022-10-31T06:27:11;265;263;
36453;PMS5003;22478;51.740;-1.314;2022-10-31T06:29:38;275;275;
36453;PMS5003;22478;51.740;-1.314;2022-10-31T06:32:05;275;274;
36453;PMS5003;22478;51.740;-1.314;2022-10-31T06:34:36;271;268;
36453;PMS5003;22478;51.740;-1.314;2022-10-31T06:37:03;272;271;
36453;PMS5003;22478;51.740;-1.314;2022-10-31T06:39:31;272;271;
36453;PMS5003;22478;51.740;-1.314;2022-10-31T06:41:58;277;277;
36453;PMS5003;22478;51.740;-1.314;2022-10-31T06:44:25;255;255;
36453;PMS5003;22478;51.740;-1.314;2022-10-31T06:46:52;257;257;
36453;PMS5003;22478;51.740;-1.314;2022-10-31T06:49:19;248;247;
36453;PMS5003;22478;51.740;-1.314;2022-10-31T06:51:46;258;258;
36453;PMS5003;22478;51.740;-1.314;2022-10-31T06:54:14;255;253;
36453;PMS5003;22478;51.740;-1.314;2022-10-31T06:56:42;224;223;
36453;PMS5003;22478;51.740;-1.314;2022-10-31T06:59:12;226;223;
36453;PMS5003;22478;51.740;-1.314;2022-10-31T07:01:39;214;213;
36453;PMS5003;22478;51.740;-1.314;2022-10-31T07:04:07;225;222;
36453;PMS5003;22478;51.740;-1.314;2022-10-31T07:06:34;218;217;
36453;PMS5003;22478;51.740;-1.314;2022-10-31T07:09:02;253;251;
36453;PMS5003;22478;51.740;-1.314;2022-10-31T07:11:30;253;252;
36453;PMS5003;22478;51.740;-1.314;2022-10-31T07:13:57;227;226;
36453;PMS5003;22478;51.740;-1.314;2022-10-31T07:16:25;279;279;
36453;PMS5003;22478;51.740;-1.314;2022-10-31T07:18:52;281;280;
36453;PMS5003;22478;51.740;-1.314;2022-10-31T07:21:20;269;267;
36453;PMS5003;22478;51.740;-1.314;2022-10-31T07:23:47;275;273;
36453;PMS5003;22478;51.740;-1.314;2022-10-31T07:26:15;245;245;
36453;PMS5003;22478;51.740;-1.314;2022-10-31T07:28:42;250;247;
36453;PMS5003;22478;51.740;-1.314;2022-10-31T07:31:10;272;271;
36453;PMS5003;22478;51.740;-1.314;2022-10-31T07:33:37;294;288;
36453;PMS5003;22478;51.740;-1.314;2022-10-31T07:36:05;286;285;
36453;PMS5003;22478;51.740;-1.314;2022-10-31T07:38:32;245;244;
36453;PMS5003;22478;51.740;-1.314;2022-10-31T07:41:00;241;241;
36453;PMS5003;22478;51.740;-1.314;2022-10-31T07:43:27;234;232;
36453;PMS5003;22478;51.740;-1.314;2022-10-31T07:45:54;246;246;
36453;PMS5003;22478;51.740;-1.314;2022-10-31T07:48:21;251;251;
36453;PMS5003;22478;51.740;-1.314;2022-10-31T07:50:49;271;270;
36453;PMS5003;22478;51.740;-1.314;2022-10-31T07:53:16;262;259;
36453;PMS5003;22478;51.740;-1.314;2022-10-31T07:55:43;269;267;
36453;PMS5003;22478;51.740;-1.314;2022-10-31T07:58:12;265;263;
36453;PMS5003;22478;51.740;-1.314;2022-10-31T08:00:41;272;271;
36453;PMS5003;22478;51.740;-1.314;2022-10-31T08:03:09;273;271;
36453;PMS5003;22478;51.740;-1.314;2022-10-31T08:05:38;291;288;
36453;PMS5003;22478;51.740;-1.314;2022-10-31T08:08:06;240;240;
36453;PMS5003;22478;51.740;-1.314;2022-10-31T08:10:34;233;230;
36453;PMS5003;22478;51.740;-1.314;2022-10-31T08:13:02;229;227;
36453;PMS5003;22478;51.740;-1.314;2022-10-31T08:15:32;217;214;
36453;PMS5003;22478;51.740;-1.314;2022-10-31T08:18:00;211;211;
36453;PMS5003;22478;51.740;-1.314;2022-10-31T08:20:28;208;208;
36453;PMS5003;22478;51.740;-1.314;2022-10-31T08:22:56;212;212;
36453;PMS5003;22478;51.740;-1.314;2022-10-31T08:25:26;205;204;
36453;PMS5003;22478;51.740;-1.314;2022-10-31T08:27:54;201;200;
36453;PMS5003;22478;51.740;-1.314;2022-10-31T08:30:23;206;205;
36453;PMS5003;22478;51.740;-1.314;2022-10-31T08:33:00;219;218;
36453;PMS5003;22478;51.740;-1.314;2022-10-31T08:35:29;216;215;
36453;PMS5003;22478;51.740;-1.314;2022-10-31T08:37:56;235;235;
36453;PMS5003;22478;51.740;-1.314;2022-10-31T08:40:25;225;223;
36453;PMS5003;22478;51.740;-1.314;2022-10-31T08:42:56;243;240;
36453;PMS5003;22478;51.740;-1.314;2022-10-31T08:45:24;252;249;
36453;PMS5003;22478;51.740;-1.314;2022-10-31T08:47:52;255;255;
36453;PMS5003;22478;51.740;-1.314;2022-10-31T08:50:24;249;249;
36453;PMS5003;22478;51.740;-1.314;2022-10-31T08:52:51;232;231;
36453;PMS5003;22478;51.740;-1.314;2022-10-31T08:55:19;252;252;
36453;PMS5003;22478;51.740;-1.314;2022-10-31T08:57:46;205;205;
36453;PMS5003;22478;51.740;-1.314;2022-10-31T09:00:13;219;219;
36453;PMS5003;22478;51.740;-1.314;2022-10-31T09:02:41;221;220;
36453;PMS5003;22478;51.740;-1.314;2022-10-31T09:05:08;236;234;
36453;PMS5003;22478;51.740;-1.314;2022-10-31T09:07:35;243;240;
36453;PMS5003;22478;51.740;-1.314;2022-10-31T09:10:03;211;209;
36453;PMS5003;22478;51.740;-1.314;2022-10-31T09:12:30;209;209;
36453;PMS5003;22478;51.740;-1.314;2022-10-31T09:14:57;211;206;
36453;PMS5003;22478;51.740;-1.314;2022-10-31T09:17:24;196;193;
36453;PMS5003;22478;51.740;-1.314;2022-10-31T09:19:51;195;193;
36453;PMS5003;22478;51.740;-1.314;2022-10-31T09:22:19;198;198;
36453;PMS5003;22478;51.740;-1.314;2022-10-31T09:24:46;170;169;
36453;PMS5003;22478;51.740;-1.314;2022-10-31T09:27:14;190;189;
36453;PMS5003;22478;51.740;-1.314;2022-10-31T09:29:41;169;163;
36453;PMS5003;22478;51.740;-1.314;2022-10-31T09:32:09;187;185;
36453;PMS5003;22478;51.740;-1.314;2022-10-31T09:34:37;258;258;
36453;PMS5003;22478;51.740;-1.314;2022-10-31T09:37:04;186;184;
36453;PMS5003;22478;51.740;-1.314;2022-10-31T09:39:30;221;221;
36453;PMS5003;22478;51.740;-1.314;2022-10-31T09:42:02;191;189;
36453;PMS5003;22478;51.740;-1.314;2022-10-31T09:44:39;217;214;
36453;PMS5003;22478;51.740;-1.314;2022-10-31T09:47:15;188;180;
36453;PMS5003;22478;51.740;-1.314;2022-10-31T09:49:52;206;203;
36453;PMS5003;22478;51.740;-1.314;2022-10-31T09:52:30;164;164;
36453;PMS5003;22478;51.740;-1.314;2022-10-31T09:55:02;207;201;
36453;PMS5003;22478;51.740;-1.314;2022-10-31T09:57:32;217;216;
36453;PMS5003;22478;51.740;-1.314;2022-10-31T10:00:03;230;230;
36453;PMS5003;22478;51.740;-1.314;2022-10-31T10:02:34;229;229;
36453;PMS5003;22478;51.740;-1.314;2022-10-31T10:05:09;232;226;
36453;PMS5003;22478;51.740;-1.314;2022-10-31T10:07:41;208;208;
36453;PMS5003;22478;51.740;-1.314;2022-10-31T10:10:17;195;194;
36453;PMS5003;22478;51.740;-1.314;2022-10-31T10:13:04;205;205;
36453;PMS5003;22478;51.740;-1.314;2022-10-31T10:15:45;93;89;
36453;PMS5003;22478;51.740;-1.314;2022-10-31T10:18:24;52;45;
36453;PMS5003;22478;51.740;-1.314;2022-10-31T10:21:06;39;33;
36453;PMS5003;22478;51.740;-1.314;2022-10-31T10:23:50;45;37;
36453;PMS5003;22478;51.740;-1.314;2022-10-31T10:26:29;36;30;
36453;PMS5003;22478;51.740;-1.314;2022-10-31T10:29:03;49;38;
36453;PMS5003;22478;51.740;-1.314;2022-10-31T10:31:44;100;91;
36453;PMS5003;22478;51.740;-1.314;2022-10-31T10:34:16;113;105;
36453;PMS5003;22478;51.740;-1.314;2022-10-31T10:36:50;100;90;
36453;PMS5003;22478;51.740;-1.314;2022-10-31T10:39:22;124;113;
36453;PMS5003;22478;51.740;-1.314;2022-10-31T10:41:52;143;131;
36453;PMS5003;22478;51.740;-1.314;2022-10-31T10:44:22;145;135;
36453;PMS5003;22478;51.740;-1.314;2022-10-31T10:46:51;179;179;
36453;PMS5003;22478;51.740;-1.314;2022-10-31T10:49:26;195;195;
36453;PMS5003;22478;51.740;-1.314;2022-10-31T10:52:00;172;171;
36453;PMS5003;22478;51.740;-1.314;2022-10-31T10:54:41;105;91;
36453;PMS5003;22478;51.740;-1.314;2022-10-31T10:57:17;134;123;
36453;PMS5003;22478;51.740;-1.314;2022-10-31T10:59:53;73;61;
36453;PMS5003;22478;51.740;-1.314;2022-10-31T11:02:22;173;172;
36453;PMS5003;22478;51.740;-1.314;2022-10-31T11:04:51;252;251;
36453;PMS5003;22478;51.740;-1.314;2022-10-31T11:07:20;167;164;
36453;PMS5003;22478;51.740;-1.314;2022-10-31T11:09:48;121;108;
36453;PMS5003;22478;51.740;-1.314;2022-10-31T11:12:17;93;80;
36453;PMS5003;22478;51.740;-1.314;2022-10-31T11:14:50;132;116;
36453;PMS5003;22478;51.740;-1.314;2022-10-31T11:17:29;167;159;
36453;PMS5003;22478;51.740;-1.314;2022-10-31T11:20:00;159;156;
36453;PMS5003;22478;51.740;-1.314;2022-10-31T11:22:28;160;147;
36453;PMS5003;22478;51.740;-1.314;2022-10-31T11:24:56;165;151;
36453;PMS5003;22478;51.740;-1.314;2022-10-31T11:27:24;142;141;
36453;PMS5003;22478;51.740;-1.314;2022-10-31T11:29:52;160;149;
36453;PMS5003;22478;51.740;-1.314;2022-10-31T11:32:31;89;74;
36453;PMS5003;22478;51.740;-1.314;2022-10-31T11:34:59;237;237;
36453;PMS5003;22478;51.740;-1.314;2022-10-31T11:37:29;219;219;
36453;PMS5003;22478;51.740;-1.314;2022-10-31T11:39:59;264;264;
36453;PMS5003;22478;51.740;-1.314;2022-10-31T11:42:34;176;175;
36453;PMS5003;22478;51.740;-1.314;2022-10-31T11:45:07;103;98;
36453;PMS5003;22478;51.740;-1.314;2022-10-31T11:47:42;152;141;
36453;PMS5003;22478;51.740;-1.314;2022-10-31T11:50:17;189;187;
36453;PMS5003;22478;51.740;-1.314;2022-10-31T11:52:47;206;202;
36453;PMS5003;22478;51.740;-1.314;2022-10-31T11:55:17;231;229;
36453;PMS5003;22478;51.740;-1.314;2022-10-31T11:57:57;215;213;
36453;PMS5003;22478;51.740;-1.314;2022-10-31T12:00:25;219;219;
36453;PMS5003;22478;51.740;-1.314;2022-10-31T12:03:04;219;219;
36453;PMS5003;22478;51.740;-1.314;2022-10-31T12:05:37;224;224;
36453;PMS5003;22478;51.740;-1.314;2022-10-31T12:08:08;236;236;
36453;PMS5003;22478;51.740;-1.314;2022-10-31T12:10:40;235;235;
36453;PMS5003;22478;51.740;-1.314;2022-10-31T12:13:21;217;217;
36453;PMS5003;22478;51.740;-1.314;2022-10-31T12:16:00;223;222;
36453;PMS5003;22478;51.740;-1.314;2022-10-31T12:18:37;233;233;
36453;PMS5003;22478;51.740;-1.314;2022-10-31T12:21:19;227;227;
36453;PMS5003;22478;51.740;-1.314;2022-10-31T12:24:00;221;221;
36453;PMS5003;22478;51.740;-1.314;2022-10-31T12:26:34;217;217;
36453;PMS5003;22478;51.740;-1.314;2022-10-31T12:29:13;213;212;
36453;PMS5003;22478;51.740;-1.314;2022-10-31T12:31:56;220;220;
36453;PMS5003;22478;51.740;-1.314;2022-10-31T12:34:42;215;215;
36453;PMS5003;22478;51.740;-1.314;2022-10-31T12:37:25;221;221;
36453;PMS5003;22478;51.740;-1.314;2022-10-31T12:40:07;200;198;
36453;PMS5003;22478;51.740;-1.314;2022-10-31T12:42:50;204;204;
36453;PMS5003;22478;51.740;-1.314;2022-10-31T12:45:30;197;196;
36453;PMS5003;22478;51.740;-1.314;2022-10-31T12:48:12;212;203;
36453;PMS5003;22478;51.740;-1.314;2022-10-31T12:50:52;207;207;
36453;PMS5003;22478;51.740;-1.314;2022-10-31T12:53:32;211;209;
36453;PMS5003;22478;51.740;-1.314;2022-10-31T12:56:14;211;211;
36453;PMS5003;22478;51.740;-1.314;2022-10-31T12:58:51;211;211;
36453;PMS5003;22478;51.740;-1.314;2022-10-31T13:01:24;230;230;
36453;PMS5003;22478;51.740;-1.314;2022-10-31T13:03:57;236;234;
36453;PMS5003;22478;51.740;-1.314;2022-10-31T13:06:30;240;239;
36453;PMS5003;22478;51.740;-1.314;2022-10-31T13:09:05;237;235;
36453;PMS5003;22478;51.740;-1.314;2022-10-31T13:11:36;225;222;
36453;PMS5003;22478;51.740;-1.314;2022-10-31T13:14:09;225;224;
36453;PMS5003;22478;51.740;-1.314;2022-10-31T13:16:42;218;217;
36453;PMS5003;22478;51.740;-1.314;2022-10-31T13:19:14;235;235;
36453;PMS5003;22478;51.740;-1.314;2022-10-31T13:21:49;228;226;
36453;PMS5003;22478;51.740;-1.314;2022-10-31T13:24:23;247;233;
36453;PMS5003;22478;51.740;-1.314;2022-10-31T13:26:58;232;230;
36453;PMS5003;22478;51.740;-1.314;2022-10-31T13:29:30;231;231;
36453;PMS5003;22478;51.740;-1.314;2022-10-31T13:32:04;224;224;
36453;PMS5003;22478;51.740;-1.314;2022-10-31T13:34:33;252;252;
36453;PMS5003;22478;51.740;-1.314;2022-10-31T13:37:05;252;252;
36453;PMS5003;22478;51.740;-1.314;2022-10-31T13:39:44;218;214;
36453;PMS5003;22478;51.740;-1.314;2022-10-31T13:42:20;215;214;
36453;PMS5003;22478;51.740;-1.314;2022-10-31T13:44:55;255;255;
36453;PMS5003;22478;51.740;-1.314;2022-10-31T13:47:38;230;230;
36453;PMS5003;22478;51.740;-1.314;2022-10-31T13:50:18;225;223;
36453;PMS5003;22478;51.740;-1.314;2022-10-31T13:52:47;238;237;
36453;PMS5003;22478;51.740;-1.314;2022-10-31T13:55:48;230;230;
36453;PMS5003;22478;51.740;-1.314;2022-10-31T13:58:20;229;226;
36453;PMS5003;22478;51.740;-1.314;2022-10-31T14:01:22;258;258;
36453;PMS5003;22478;51.740;-1.314;2022-10-31T14:03:56;232;228;
36453;PMS5003;22478;51.740;-1.314;2022-10-31T14:06:34;241;238;
36453;PMS5003;22478;51.740;-1.314;2022-10-31T14:09:17;231;231;
36453;PMS5003;22478;51.740;-1.314;2022-10-31T14:11:48;232;232;
36453;PMS5003;22478;51.740;-1.314;2022-10-31T14:15:54;262;262;
36453;PMS5003;22478;51.740;-1.314;2022-10-31T14:18:24;252;252;
36453;PMS5003;22478;51.740;-1.314;2022-10-31T14:20:56;256;254;
36453;PMS5003;22478;51.740;-1.314;2022-10-31T14:23:39;252;252;
36453;PMS5003;22478;51.740;-1.314;2022-10-31T14:26:16;240;238;
36453;PMS5003;22478;51.740;-1.314;2022-10-31T14:28:47;224;213;
36453;PMS5003;22478;51.740;-1.314;2022-10-31T14:31:32;212;198;
36453;PMS5003;22478;51.740;-1.314;2022-10-31T14:34:06;204;201;
36453;PMS5003;22478;51.740;-1.314;2022-10-31T14:36:50;216;205;
36453;PMS5003;22478;51.740;-1.314;2022-10-31T14:39:29;198;198;
36453;PMS5003;22478;51.740;-1.314;2022-10-31T14:42:06;212;210;
36453;PMS5003;22478;51.740;-1.314;2022-10-31T14:44:57;237;237;
36453;PMS5003;22478;51.740;-1.314;2022-10-31T14:47:36;260;257;
36453;PMS5003;22478;51.740;-1.314;2022-10-31T14:50:20;265;265;
36453;PMS5003;22478;51.740;-1.314;2022-10-31T14:52:51;216;216;
36453;PMS5003;22478;51.740;-1.314;2022-10-31T14:55:21;312;310;
36453;PMS5003;22478;51.740;-1.314;2022-10-31T14:57:52;205;205;
36453;PMS5003;22478;51.740;-1.314;2022-10-31T15:00:22;184;184;
36453;PMS5003;22478;51.740;-1.314;2022-10-31T15:02:56;190;190;
36453;PMS5003;22478;51.740;-1.314;2022-10-31T15:05:32;309;307;
36453;PMS5003;22478;51.740;-1.314;2022-10-31T15:08:13;346;344;
36453;PMS5003;22478;51.740;-1.314;2022-10-31T15:10:52;196;196;
36453;PMS5003;22478;51.740;-1.314;2022-10-31T15:13:20;318;317;
36453;PMS5003;22478;51.740;-1.314;2022-10-31T15:15:48;259;257;
36453;PMS5003;22478;51.740;-1.314;2022-10-31T15:18:20;241;239;
36453;PMS5003;22478;51.740;-1.314;2022-10-31T15:20:49;261;261;
36453;PMS5003;22478;51.740;-1.314;2022-10-31T15:23:20;274;273;
36453;PMS5003;22478;51.740;-1.314;2022-10-31T15:25:49;314;313;
36453;PMS5003;22478;51.740;-1.314;2022-10-31T15:28:21;311;310;
36453;PMS5003;22478;51.740;-1.314;2022-10-31T15:30:50;235;223;
36453;PMS5003;22478;51.740;-1.314;2022-10-31T15:33:21;229;219;
36453;PMS5003;22478;51.740;-1.314;2022-10-31T15:35:54;217;204;
36453;PMS5003;22478;51.740;-1.314;2022-10-31T15:38:24;204;204;
36453;PMS5003;22478;51.740;-1.314;2022-10-31T15:40:54;213;211;
36453;PMS5003;22478;51.740;-1.314;2022-10-31T15:43:26;197;196;
36453;PMS5003;22478;51.740;-1.314;2022-10-31T15:45:57;211;210;
36453;PMS5003;22478;51.740;-1.314;2022-10-31T15:48:26;200;184;
36453;PMS5003;22478;51.740;-1.314;2022-10-31T15:50:54;213;210;
36453;PMS5003;22478;51.740;-1.314;2022-10-31T15:53:23;216;216;
36453;PMS5003;22478;51.740;-1.314;2022-10-31T15:55:54;209;209;
36453;PMS5003;22478;51.740;-1.314;2022-10-31T15:58:23;214;208;